Time;durP1;ratioP1;P1;durP2;ratioP2;P2;SDS_P1;SDS_P2;PMS_P1;PMS_P2;Temp;Humidity;BMP_temperature;BMP_pressure;BME280_temperature;BME280_humidity;BME280_pressure;Samples;Min_cycle;Max_cycle;Signal;HPM_P1;HPM_P2
2021/05/30 00:03:40;;;;;;;3.97;3.30;;;18.40;64.40;;;;;;10560548;28;20070;-50
2021/05/30 00:08:41;;;;;;;3.85;3.33;;;18.40;64.40;;;;;;10543620;28;20078;-51
2021/05/30 00:13:42;;;;;;;6.75;3.28;;;18.40;64.30;;;;;;10543838;28;20442;-48
2021/05/30 00:18:42;;;;;;;3.53;2.85;;;18.40;64.40;;;;;;10543286;28;20506;-50
2021/05/30 00:23:43;;;;;;;4.65;3.50;;;18.40;64.30;;;;;;10556965;28;20453;-49
2021/05/30 00:28:44;;;;;;;3.25;2.78;;;18.40;64.20;;;;;;10545469;28;20047;-49
2021/05/30 00:33:46;;;;;;;4.22;2.63;;;18.40;64.20;;;;;;10566556;28;20043;-51
2021/05/30 00:38:46;;;;;;;4.18;2.97;;;18.40;64.10;;;;;;10542464;28;20048;-49
2021/05/30 00:43:53;;;;;;;5.47;3.33;;;18.40;64.10;;;;;;10542502;28;20046;-48
2021/05/30 00:48:54;;;;;;;3.80;2.85;;;18.40;64.60;;;;;;10540229;28;20415;-49
2021/05/30 00:53:54;;;;;;;2.67;2.33;;;18.40;64.00;;;;;;10542784;28;20035;-51
2021/05/30 00:58:55;;;;;;;3.58;3.20;;;18.40;64.00;;;;;;10556688;28;20022;-50
2021/05/30 01:03:56;;;;;;;3.92;3.08;;;18.30;63.90;;;;;;10561900;28;20120;-49
2021/05/30 01:08:59;;;;;;;3.72;2.90;;;18.30;63.90;;;;;;10566109;28;20090;-47
2021/05/30 01:14:00;;;;;;;4.00;3.15;;;18.30;63.80;;;;;;10523400;28;20110;-48
2021/05/30 01:19:05;;;;;;;4.43;3.15;;;18.30;63.80;;;;;;10543209;28;20067;-51
2021/05/30 01:24:06;;;;;;;3.85;3.30;;;18.30;63.80;;;;;;10578882;28;20043;-52
2021/05/30 01:29:07;;;;;;;4.10;3.00;;;18.30;63.80;;;;;;10549510;28;20041;-50
2021/05/30 01:34:08;;;;;;;3.53;2.88;;;18.30;63.80;;;;;;10522742;28;20028;-50
2021/05/30 01:39:08;;;;;;;4.82;4.00;;;18.30;63.80;;;;;;10539997;28;20044;-48
2021/05/30 01:44:09;;;;;;;3.63;2.90;;;18.30;63.70;;;;;;10556046;28;20169;-52
2021/05/30 01:49:10;;;;;;;3.70;2.88;;;18.30;63.70;;;;;;10575708;28;20349;-49
2021/05/30 01:54:14;;;;;;;3.55;2.78;;;18.20;63.60;;;;;;10539958;28;20111;-49
2021/05/30 01:59:15;;;;;;;4.07;3.45;;;18.20;63.60;;;;;;10539491;28;20112;-48
2021/05/30 02:04:16;;;;;;;6.57;3.35;;;18.20;63.50;;;;;;10539607;28;20032;-47
2021/05/30 02:09:17;;;;;;;4.82;3.70;;;18.20;63.50;;;;;;10558608;28;20027;-48
2021/05/30 02:14:18;;;;;;;4.28;3.40;;;18.20;63.50;;;;;;10542062;28;20040;-48
2021/05/30 02:19:19;;;;;;;3.85;3.28;;;18.20;63.50;;;;;;10520667;28;20032;-50
2021/05/30 02:24:22;;;;;;;4.63;3.72;;;18.20;63.50;;;;;;10556464;28;20029;-49
2021/05/30 02:29:36;;;;;;;4.35;3.53;;;18.20;63.40;;;;;;10557581;28;20034;-50
2021/05/30 02:34:38;;;;;;;4.75;3.28;;;18.20;63.40;;;;;;10554271;28;20076;-47
2021/05/30 02:39:39;;;;;;;4.85;3.55;;;18.20;63.40;;;;;;10559167;28;20052;-48
2021/05/30 02:44:40;;;;;;;4.30;3.67;;;18.20;63.40;;;;;;10547501;28;20059;-49
2021/05/30 02:49:40;;;;;;;5.80;3.40;;;18.20;63.40;;;;;;10579305;28;20038;-47
2021/05/30 02:54:41;;;;;;;4.70;3.45;;;18.20;63.30;;;;;;10552392;28;20059;-48
2021/05/30 02:59:42;;;;;;;4.50;3.53;;;18.20;63.30;;;;;;10554023;28;20443;-48
2021/05/30 03:04:42;;;;;;;4.57;3.65;;;18.10;63.20;;;;;;10538531;28;20108;-48
2021/05/30 03:09:43;;;;;;;3.38;3.00;;;18.10;63.20;;;;;;10537917;28;20150;-49
2021/05/30 03:14:44;;;;;;;3.92;3.53;;;18.10;63.20;;;;;;10552128;28;20058;-48
2021/05/30 03:19:44;;;;;;;4.10;2.92;;;18.10;63.20;;;;;;10531286;28;20070;-53
2021/05/30 03:24:45;;;;;;;3.95;3.55;;;18.10;63.20;;;;;;10549881;28;20098;-52
2021/05/30 03:29:46;;;;;;;4.32;3.65;;;18.10;63.20;;;;;;10575133;28;20062;-49
2021/05/30 03:34:46;;;;;;;4.05;3.47;;;18.10;63.20;;;;;;10527217;28;20392;-47
2021/05/30 03:39:48;;;;;;;4.28;2.83;;;18.10;63.20;;;;;;10526472;28;20050;-49
2021/05/30 03:44:49;;;;;;;5.28;3.53;;;18.10;63.20;;;;;;10545152;28;20016;-49
2021/05/30 03:49:50;;;;;;;4.07;3.55;;;18.10;63.10;;;;;;10544772;28;20043;-49
2021/05/30 03:54:51;;;;;;;4.53;3.35;;;18.10;63.20;;;;;;10544856;28;20085;-49
2021/05/30 03:59:51;;;;;;;3.88;3.20;;;18.10;63.20;;;;;;10544001;28;20511;-51
2021/05/30 04:04:52;;;;;;;4.50;3.50;;;18.00;63.10;;;;;;10550890;28;20075;-48
2021/05/30 04:09:53;;;;;;;4.10;3.38;;;18.00;63.10;;;;;;10565680;28;20051;-51
2021/05/30 04:14:53;;;;;;;4.55;3.35;;;18.00;63.00;;;;;;10525980;28;20028;-50
2021/05/30 04:19:54;;;;;;;5.15;3.90;;;18.00;62.90;;;;;;10543232;28;20025;-49
2021/05/30 04:24:54;;;;;;;3.88;3.47;;;18.00;63.00;;;;;;10566259;28;20069;-53
2021/05/30 04:29:55;;;;;;;5.38;3.92;;;18.00;63.00;;;;;;10574746;28;20102;-48
2021/05/30 04:34:56;;;;;;;3.70;3.35;;;18.00;63.00;;;;;;10548950;28;20056;-50
2021/05/30 04:39:57;;;;;;;6.15;3.85;;;18.00;62.90;;;;;;10541525;28;20106;-49
2021/05/30 04:44:58;;;;;;;4.18;3.42;;;18.00;63.00;;;;;;10542801;28;20489;-47
2021/05/30 04:49:59;;;;;;;4.47;3.40;;;18.00;63.00;;;;;;10567473;28;20153;-50
2021/05/30 04:54:59;;;;;;;4.05;3.47;;;18.00;63.00;;;;;;10554734;28;20024;-51
2021/05/30 05:00:00;;;;;;;4.70;3.22;;;18.00;63.00;;;;;;10566048;28;20038;-48
2021/05/30 05:05:01;;;;;;;4.35;3.63;;;18.00;63.00;;;;;;10565508;28;20512;-51
2021/05/30 05:10:03;;;;;;;4.45;3.35;;;18.00;63.10;;;;;;10565637;28;20032;-48
2021/05/30 05:15:05;;;;;;;4.45;3.65;;;18.00;63.10;;;;;;10559019;28;20039;-50
2021/05/30 05:20:06;;;;;;;4.07;3.47;;;17.90;63.10;;;;;;10540706;28;20035;-49
2021/05/30 05:25:08;;;;;;;8.02;4.57;;;17.90;63.10;;;;;;10536700;28;20492;-54
2021/05/30 05:30:10;;;;;;;7.85;4.10;;;18.00;64.20;;;;;;10567283;28;20031;-50
2021/05/30 05:35:10;;;;;;;6.10;3.65;;;18.10;65.20;;;;;;10568227;28;20042;-50
2021/05/30 05:40:12;;;;;;;9.38;4.32;;;18.20;65.10;;;;;;10542053;28;20048;-51
2021/05/30 05:45:14;;;;;;;8.23;4.47;;;18.10;65.20;;;;;;10540222;28;20032;-53
2021/05/30 05:50:17;;;;;;;9.50;4.13;;;18.20;65.60;;;;;;10566169;28;20408;-53
2021/05/30 05:55:19;;;;;;;8.32;4.88;;;18.20;65.40;;;;;;10554808;28;20180;-54
2021/05/30 06:00:23;;;;;;;8.23;5.10;;;18.20;65.60;;;;;;10531943;28;20060;-50
2021/05/30 06:05:25;;;;;;;10.60;4.15;;;18.20;65.20;;;;;;10547152;28;20024;-54
2021/05/30 06:10:27;;;;;;;17.25;5.43;;;18.20;65.30;;;;;;10561320;28;20090;-52
2021/05/30 06:15:29;;;;;;;12.25;4.88;;;18.20;65.50;;;;;;10555438;28;20032;-53
2021/05/30 06:20:29;;;;;;;7.00;4.85;;;18.20;65.00;;;;;;10536478;28;20024;-51
2021/05/30 06:25:30;;;;;;;8.07;4.53;;;18.20;65.10;;;;;;10545636;28;20032;-50
2021/05/30 06:30:35;;;;;;;7.78;4.70;;;18.10;65.10;;;;;;10570459;28;20023;-51
2021/05/30 06:35:39;;;;;;;7.13;4.20;;;18.10;65.20;;;;;;10565553;28;20038;-51
2021/05/30 06:40:40;;;;;;;7.57;3.97;;;18.10;64.80;;;;;;10560775;28;20519;-53
2021/05/30 06:45:40;;;;;;;6.10;4.07;;;18.10;65.40;;;;;;10542756;28;20031;-53
2021/05/30 06:50:41;;;;;;;8.38;4.20;;;18.10;64.80;;;;;;10575226;28;20043;-51
2021/05/30 06:55:42;;;;;;;7.55;4.10;;;18.00;64.70;;;;;;10547485;28;20104;-51
2021/05/30 07:00:42;;;;;;;9.02;4.13;;;18.10;64.60;;;;;;10539725;28;20101;-50
2021/05/30 07:05:43;;;;;;;6.90;3.92;;;18.10;64.60;;;;;;10546797;28;20055;-50
2021/05/30 07:10:44;;;;;;;6.70;3.65;;;18.10;64.60;;;;;;10560801;28;20059;-51
2021/05/30 07:15:44;;;;;;;7.43;4.25;;;18.10;64.60;;;;;;10531641;28;20471;-50
2021/05/30 07:20:46;;;;;;;6.95;3.95;;;18.10;64.60;;;;;;10578240;28;20040;-53
2021/05/30 07:25:49;;;;;;;6.10;3.63;;;18.10;64.60;;;;;;10542007;28;20031;-50
2021/05/30 07:30:50;;;;;;;5.82;4.35;;;18.10;64.60;;;;;;10548782;28;20028;-50
2021/05/30 07:35:51;;;;;;;4.45;3.63;;;18.20;64.70;;;;;;10547217;28;20046;-48
2021/05/30 07:40:52;;;;;;;5.15;3.88;;;18.20;64.70;;;;;;10580200;28;20075;-54
2021/05/30 07:45:53;;;;;;;8.55;4.38;;;18.20;64.60;;;;;;10551750;28;20066;-49
2021/05/30 07:50:54;;;;;;;6.00;4.03;;;18.20;64.60;;;;;;10563183;28;20080;-56
2021/05/30 07:55:55;;;;;;;5.13;3.75;;;18.20;64.40;;;;;;10573338;28;20019;-49
2021/05/30 08:00:56;;;;;;;8.40;4.28;;;18.20;64.40;;;;;;10572704;28;20115;-48
2021/05/30 08:05:56;;;;;;;5.75;4.60;;;18.20;64.50;;;;;;10546369;28;20428;-49
2021/05/30 08:10:57;;;;;;;5.80;3.40;;;18.20;64.50;;;;;;10528426;28;20032;-49
2021/05/30 08:15:58;;;;;;;7.25;4.47;;;18.20;64.50;;;;;;10527049;28;20032;-47
2021/05/30 08:20:58;;;;;;;4.85;3.55;;;18.20;64.60;;;;;;10525004;28;20122;-48
2021/05/30 08:25:59;;;;;;;4.63;3.35;;;18.30;64.60;;;;;;10571939;28;20491;-47
2021/05/30 08:31:00;;;;;;;4.80;3.55;;;18.30;64.60;;;;;;10567942;28;20406;-48
2021/05/30 08:36:02;;;;;;;5.03;3.53;;;18.20;64.60;;;;;;10575620;28;20369;-47
2021/05/30 08:41:02;;;;;;;5.57;3.90;;;18.30;64.70;;;;;;10542871;28;20075;-49
2021/05/30 08:46:03;;;;;;;4.30;3.25;;;18.30;64.70;;;;;;10542641;28;20111;-47
2021/05/30 08:51:05;;;;;;;4.57;3.42;;;18.30;64.70;;;;;;10542262;28;20149;-47
2021/05/30 08:56:08;;;;;;;5.55;3.50;;;18.30;64.70;;;;;;10573247;28;20107;-51
2021/05/30 09:01:21;;;;;;;6.43;3.88;;;18.30;64.70;;;;;;10566730;28;20054;-47
2021/05/30 09:06:23;;;;;;;4.03;3.10;;;18.30;64.70;;;;;;10572575;28;20040;-48
2021/05/30 09:11:49;;;;;;;5.25;3.47;;;18.30;64.70;;;;;;10541801;28;20110;-48
2021/05/30 09:17:02;;;;;;;3.55;2.90;;;18.30;64.80;;;;;;10568999;28;20035;-49
2021/05/30 09:22:27;;;;;;;4.78;3.53;;;18.30;64.70;;;;;;10560841;28;20076;-48
2021/05/30 09:27:28;;;;;;;4.93;3.22;;;18.30;64.70;;;;;;10540883;28;20066;-47
2021/05/30 09:32:28;;;;;;;4.07;3.00;;;18.40;64.70;;;;;;10541558;28;20140;-53
2021/05/30 09:37:29;;;;;;;3.80;2.92;;;18.30;64.70;;;;;;10562646;28;20024;-50
2021/05/30 09:42:33;;;;;;;5.13;2.80;;;18.40;64.80;;;;;;10542334;28;20083;-49
2021/05/30 09:47:38;;;;;;;5.00;2.92;;;18.40;64.80;;;;;;10539215;28;20040;-52
2021/05/30 09:52:47;;;;;;;4.57;2.90;;;18.40;64.80;;;;;;10537976;28;20032;-48
2021/05/30 09:58:15;;;;;;;6.13;3.25;;;18.40;64.80;;;;;;10539942;28;20024;-51
2021/05/30 10:03:17;;;;;;;4.40;3.35;;;18.40;64.80;;;;;;10538695;28;20395;-47
2021/05/30 10:08:20;;;;;;;3.88;2.95;;;18.40;64.80;;;;;;10526546;28;20102;-47
2021/05/30 10:13:21;;;;;;;3.65;2.60;;;18.40;64.80;;;;;;10576523;28;20049;-49
2021/05/30 10:18:36;;;;;;;3.83;2.70;;;18.40;64.80;;;;;;10565333;28;20035;-49
2021/05/30 10:23:40;;;;;;;4.05;2.90;;;18.40;64.80;;;;;;10520875;28;20430;-49
2021/05/30 10:29:08;;;;;;;4.93;3.05;;;18.40;64.80;;;;;;10521226;28;20059;-49
2021/05/30 10:34:09;;;;;;;3.17;2.58;;;18.40;64.80;;;;;;10522229;28;20039;-47
2021/05/30 10:39:28;;;;;;;5.10;3.45;;;18.40;64.80;;;;;;10557205;28;20054;-47
2021/05/30 10:44:59;;;;;;;4.10;2.90;;;18.50;64.80;;;;;;10560221;28;20491;-48
2021/05/30 10:50:09;;;;;;;4.00;2.55;;;18.50;64.90;;;;;;10556094;28;20030;-47
2021/05/30 10:55:13;;;;;;;3.88;3.47;;;18.50;64.80;;;;;;10551445;28;20040;-48
2021/05/30 11:00:20;;;;;;;3.17;2.53;;;18.50;64.80;;;;;;10546625;28;20058;-48
2021/05/30 11:05:59;;;;;;;3.60;3.10;;;18.50;64.80;;;;;;10553855;28;20031;-47
2021/05/30 11:11:29;;;;;;;3.27;2.40;;;18.50;64.80;;;;;;10562731;28;20433;-47
2021/05/30 11:16:33;;;;;;;2.85;2.33;;;18.60;64.90;;;;;;10546429;28;20032;-48
2021/05/30 11:21:47;;;;;;;4.30;2.90;;;18.60;64.80;;;;;;10545615;28;20028;-47
2021/05/30 11:27:14;;;;;;;5.70;2.70;;;18.60;64.90;;;;;;10567391;28;20062;-47
2021/05/30 11:32:15;;;;;;;4.32;2.42;;;18.70;64.90;;;;;;10555164;28;20047;-48
2021/05/30 11:37:16;;;;;;;4.07;2.90;;;18.70;64.90;;;;;;10560236;28;20363;-48
2021/05/30 11:42:24;;;;;;;4.05;3.65;;;18.70;64.90;;;;;;10555005;28;20044;-47
2021/05/30 11:47:25;;;;;;;3.33;2.47;;;18.70;64.90;;;;;;10559972;28;20027;-48
2021/05/30 11:52:28;;;;;;;4.20;2.92;;;18.70;64.80;;;;;;10559139;28;20023;-49
2021/05/30 11:57:28;;;;;;;3.42;2.58;;;18.70;64.80;;;;;;10526521;28;20115;-48
2021/05/30 12:02:38;;;;;;;4.07;2.60;;;18.70;64.80;;;;;;10550207;28;20126;-48
2021/05/30 12:07:39;;;;;;;7.20;2.83;;;18.80;64.90;;;;;;10566196;28;20028;-48
2021/05/30 12:12:45;;;;;;;2.80;2.10;;;18.80;64.80;;;;;;10554082;28;20036;-47
2021/05/30 12:17:54;;;;;;;4.53;2.45;;;18.80;64.80;;;;;;10555264;28;20480;-51
2021/05/30 12:23:18;;;;;;;3.85;2.78;;;18.80;64.80;;;;;;10543196;28;20039;-47
2021/05/30 12:28:26;;;;;;;3.13;2.67;;;18.90;64.80;;;;;;10543597;28;20131;-48
2021/05/30 12:33:27;;;;;;;3.67;2.72;;;18.90;64.90;;;;;;10538577;28;20483;-47
2021/05/30 12:38:30;;;;;;;2.67;2.35;;;18.90;64.90;;;;;;10539843;28;20127;-47
2021/05/30 12:43:40;;;;;;;3.83;3.05;;;18.90;64.80;;;;;;10542254;28;20708;-52
2021/05/30 12:48:47;;;;;;;4.90;2.90;;;18.90;64.80;;;;;;10542616;28;20044;-48
2021/05/30 12:53:49;;;;;;;3.63;2.58;;;18.90;64.90;;;;;;10548412;28;20036;-51
2021/05/30 12:59:32;;;;;;;3.15;2.50;;;19.00;64.90;;;;;;10541191;28;20028;-55
2021/05/30 13:04:46;;;;;;;3.95;2.38;;;19.00;64.80;;;;;;10397296;28;20482;-53
2021/05/30 13:09:53;;;;;;;3.65;2.70;;;19.00;64.70;;;;;;10549732;28;20027;-52
2021/05/30 13:15:23;;;;;;;2.95;2.05;;;19.00;64.70;;;;;;10548901;28;20028;-52
2021/05/30 13:20:28;;;;;;;3.53;2.38;;;19.10;64.70;;;;;;10541030;28;20028;-52
2021/05/30 13:26:00;;;;;;;2.75;2.20;;;19.00;64.50;;;;;;10522111;28;20055;-53
2021/05/30 13:31:16;;;;;;;3.25;2.40;;;19.10;64.60;;;;;;10573632;28;20088;-53
2021/05/30 13:36:19;;;;;;;3.40;2.50;;;19.10;64.50;;;;;;10574442;28;20059;-53
2021/05/30 13:41:24;;;;;;;3.00;2.70;;;19.10;64.50;;;;;;10539729;28;20048;-53
2021/05/30 13:46:27;;;;;;;2.75;2.25;;;19.10;64.50;;;;;;10539252;28;20085;-51
2021/05/30 13:51:29;;;;;;;3.15;2.67;;;19.10;64.50;;;;;;10540151;28;20102;-50
2021/05/30 13:56:29;;;;;;;5.82;2.42;;;19.20;64.50;;;;;;10538318;28;20114;-48
2021/05/30 14:01:30;;;;;;;5.90;2.13;;;19.20;64.40;;;;;;10538682;28;20047;-45
2021/05/30 14:06:31;;;;;;;3.30;2.35;;;19.20;64.40;;;;;;10546577;28;20020;-49
2021/05/30 14:11:32;;;;;;;3.08;2.70;;;19.20;64.30;;;;;;10555874;28;20092;-48
2021/05/30 14:16:34;;;;;;;4.70;2.97;;;19.20;64.20;;;;;;10540665;28;20020;-47
2021/05/30 14:21:35;;;;;;;3.35;2.53;;;19.20;64.00;;;;;;10520938;28;20127;-44
2021/05/30 14:26:36;;;;;;;4.25;2.38;;;19.20;64.10;;;;;;10552935;28;20039;-46
2021/05/30 14:31:37;;;;;;;4.32;2.53;;;19.20;64.00;;;;;;10542793;28;20023;-48
2021/05/30 14:36:37;;;;;;;3.42;2.40;;;19.20;64.10;;;;;;10531247;28;20032;-46
2021/05/30 14:41:39;;;;;;;2.72;1.80;;;19.20;64.10;;;;;;10567176;28;20028;-49
2021/05/30 14:46:40;;;;;;;3.42;2.65;;;19.20;64.50;;;;;;10552869;28;20167;-47
2021/05/30 14:51:41;;;;;;;4.43;2.35;;;19.20;64.00;;;;;;10538344;28;20028;-47
2021/05/30 14:56:41;;;;;;;5.03;3.22;;;19.20;64.10;;;;;;10552071;28;20032;-46
2021/05/30 15:01:42;;;;;;;3.55;2.33;;;19.20;64.20;;;;;;10551251;28;20023;-48
2021/05/30 15:06:47;;;;;;;3.40;2.47;;;19.20;64.30;;;;;;10565430;28;20031;-49
2021/05/30 15:11:48;;;;;;;3.13;2.38;;;19.20;64.30;;;;;;10530627;28;20060;-47
2021/05/30 15:16:48;;;;;;;4.88;2.45;;;19.20;64.30;;;;;;10569932;28;20388;-50
2021/05/30 15:21:50;;;;;;;5.03;3.30;;;19.20;64.20;;;;;;10548718;28;20024;-51
2021/05/30 15:26:51;;;;;;;6.78;2.95;;;19.20;64.00;;;;;;10574365;28;20061;-50
2021/05/30 15:31:53;;;;;;;6.05;4.07;;;19.20;64.00;;;;;;10556927;28;20123;-51
2021/05/30 15:36:54;;;;;;;5.63;3.80;;;19.20;63.80;;;;;;10559965;28;20059;-51
2021/05/30 15:41:54;;;;;;;5.72;3.65;;;19.20;63.80;;;;;;10544754;28;20119;-50
2021/05/30 15:46:55;;;;;;;4.63;3.17;;;19.20;63.80;;;;;;10544789;28;20028;-48
2021/05/30 15:51:56;;;;;;;6.38;3.33;;;19.20;63.80;;;;;;10570653;28;20098;-48
2021/05/30 15:56:56;;;;;;;6.13;3.58;;;19.20;63.80;;;;;;10554795;28;20418;-52
2021/05/30 16:01:57;;;;;;;5.57;2.95;;;19.20;63.90;;;;;;10568303;28;20478;-58
2021/05/30 16:06:59;;;;;;;7.70;3.97;;;19.20;63.80;;;;;;10557502;28;20456;-57
2021/05/30 16:12:00;;;;;;;6.20;3.53;;;19.20;63.80;;;;;;10548388;28;20023;-57
2021/05/30 16:17:00;;;;;;;10.43;4.25;;;19.20;64.40;;;;;;10561079;28;20503;-57
2021/05/30 16:22:03;;;;;;;4.90;3.17;;;19.20;63.80;;;;;;10542823;28;20119;-57
2021/05/30 16:27:04;;;;;;;4.63;3.22;;;19.20;63.90;;;;;;10543475;28;20032;-57
2021/05/30 16:32:05;;;;;;;5.50;3.38;;;19.20;64.00;;;;;;10557089;28;20139;-56
2021/05/30 16:37:06;;;;;;;4.45;3.13;;;19.20;64.00;;;;;;10544869;28;20098;-57
2021/05/30 16:42:09;;;;;;;6.13;3.13;;;19.20;64.10;;;;;;10584522;28;20050;-57
2021/05/30 16:47:10;;;;;;;3.85;2.97;;;19.10;64.10;;;;;;10584739;28;20371;-57
2021/05/30 16:52:14;;;;;;;5.45;3.42;;;19.20;64.20;;;;;;10554672;28;20068;-58
2021/05/30 16:57:14;;;;;;;5.82;3.20;;;19.20;64.20;;;;;;10539071;28;20403;-58
2021/05/30 17:02:15;;;;;;;3.85;2.78;;;19.20;64.20;;;;;;10555739;28;20028;-58
2021/05/30 17:07:16;;;;;;;5.05;3.42;;;19.20;64.30;;;;;;10568560;28;20052;-57
2021/05/30 17:12:17;;;;;;;4.10;2.92;;;19.10;64.20;;;;;;10548264;28;20056;-57
2021/05/30 17:17:18;;;;;;;4.40;3.08;;;19.20;64.20;;;;;;10548582;28;20072;-57
2021/05/30 17:22:19;;;;;;;5.63;3.15;;;19.20;64.20;;;;;;10573515;28;20040;-57
2021/05/30 17:27:20;;;;;;;4.10;2.97;;;19.20;64.30;;;;;;10540482;28;20043;-57
2021/05/30 17:32:20;;;;;;;5.30;2.97;;;19.20;64.30;;;;;;10536827;28;20038;-57
2021/05/30 17:37:21;;;;;;;7.90;3.33;;;19.20;64.30;;;;;;10550890;28;20070;-58
2021/05/30 17:42:22;;;;;;;3.70;2.78;;;19.20;64.30;;;;;;10540353;28;20155;-58
2021/05/30 17:47:23;;;;;;;4.32;2.92;;;19.20;64.30;;;;;;10540937;28;20122;-57
2021/05/30 17:52:23;;;;;;;5.47;3.33;;;19.20;64.30;;;;;;10553184;28;20024;-57
2021/05/30 17:57:24;;;;;;;6.47;3.33;;;19.20;64.30;;;;;;10562052;28;20023;-58
2021/05/30 18:02:25;;;;;;;6.72;3.83;;;19.20;64.30;;;;;;10556528;28;20056;-57
2021/05/30 18:07:32;;;;;;;5.47;3.95;;;19.20;64.30;;;;;;10555402;28;20028;-57
2021/05/30 18:12:33;;;;;;;7.95;5.05;;;19.20;64.70;;;;;;10561084;28;20032;-57
2021/05/30 18:17:34;;;;;;;8.35;5.03;;;19.20;64.40;;;;;;10543736;28;20098;-56
2021/05/30 18:22:34;;;;;;;8.95;5.25;;;19.20;64.60;;;;;;10546073;28;20064;-57
2021/05/30 18:27:37;;;;;;;6.10;3.80;;;19.20;64.60;;;;;;10568531;28;20104;-58
2021/05/30 18:32:38;;;;;;;7.03;4.05;;;19.20;64.40;;;;;;10555406;28;20032;-59
2021/05/30 18:37:39;;;;;;;5.57;4.55;;;19.20;64.20;;;;;;10547727;28;20027;-57
2021/05/30 18:42:42;;;;;;;7.28;4.03;;;19.20;64.10;;;;;;10556951;28;20393;-58
2021/05/30 18:47:44;;;;;;;6.38;4.95;;;19.20;64.10;;;;;;10560996;28;20379;-57
2021/05/30 18:52:45;;;;;;;8.05;4.80;;;19.20;64.00;;;;;;10562034;28;20039;-58
2021/05/30 18:57:45;;;;;;;5.38;4.30;;;19.20;63.80;;;;;;10563910;28;20028;-58
2021/05/30 19:02:46;;;;;;;5.22;4.03;;;19.20;62.70;;;;;;10573981;28;20349;-58
2021/05/30 19:07:47;;;;;;;5.13;3.92;;;19.20;61.80;;;;;;10561322;28;20048;-59
2021/05/30 19:12:49;;;;;;;7.15;4.03;;;19.30;62.70;;;;;;10569798;28;20046;-59
2021/05/30 19:17:49;;;;;;;6.30;3.78;;;19.30;62.50;;;;;;10567188;28;20027;-59
2021/05/30 19:22:50;;;;;;;5.28;3.97;;;19.40;63.00;;;;;;10549908;28;20067;-58
2021/05/30 19:27:51;;;;;;;6.95;4.25;;;19.40;63.60;;;;;;10564185;28;20128;-58
2021/05/30 19:32:54;;;;;;;7.43;4.20;;;19.40;64.40;;;;;;10545461;28;20040;-58
2021/05/30 19:37:55;;;;;;;5.85;4.07;;;19.50;64.30;;;;;;10545566;28;20388;-58
2021/05/30 19:42:56;;;;;;;6.55;3.95;;;19.50;64.60;;;;;;10579393;28;20043;-58
2021/05/30 19:47:57;;;;;;;6.93;4.78;;;19.50;64.40;;;;;;10561926;28;20107;-57
2021/05/30 19:52:58;;;;;;;6.68;4.15;;;19.50;64.40;;;;;;10568458;28;20134;-56
2021/05/30 19:58:00;;;;;;;7.10;3.97;;;19.60;64.40;;;;;;10568580;28;20059;-60
2021/05/30 20:03:00;;;;;;;8.68;4.75;;;19.60;64.50;;;;;;10569140;28;20432;-61
2021/05/30 20:08:01;;;;;;;10.48;4.40;;;19.70;64.80;;;;;;10550931;28;21547;-61
2021/05/30 20:13:05;;;;;;;5.88;4.55;;;19.70;64.70;;;;;;10570332;28;20047;-60
2021/05/30 20:18:07;;;;;;;8.73;4.57;;;19.70;64.70;;;;;;10550426;28;20379;-61
2021/05/30 20:23:09;;;;;;;5.40;4.25;;;19.60;64.60;;;;;;10563483;28;20100;-61
2021/05/30 20:28:22;;;;;;;5.30;4.18;;;19.60;64.60;;;;;;10530753;28;20028;-61
2021/05/30 20:33:26;;;;;;;5.68;3.95;;;19.60;64.50;;;;;;10542513;28;20039;-61
2021/05/30 20:38:26;;;;;;;5.88;4.10;;;19.60;64.50;;;;;;10541844;28;20040;-60
2021/05/30 20:43:27;;;;;;;7.05;4.40;;;19.50;64.50;;;;;;10524328;28;20115;-61
2021/05/30 20:48:28;;;;;;;4.88;3.63;;;19.50;64.50;;;;;;10557628;28;20025;-61
2021/05/30 20:53:29;;;;;;;5.70;4.05;;;19.50;64.50;;;;;;10579572;28;20106;-61
2021/05/30 20:58:30;;;;;;;4.78;3.55;;;19.50;64.50;;;;;;10542183;28;20062;-61
2021/05/30 21:03:30;;;;;;;4.85;4.03;;;19.50;64.40;;;;;;10542012;28;20523;-61
2021/05/30 21:08:31;;;;;;;4.72;3.50;;;19.50;64.50;;;;;;10545733;28;20055;-61
2021/05/30 21:13:32;;;;;;;5.95;4.00;;;19.50;64.40;;;;;;10540805;28;20499;-61
2021/05/30 21:18:33;;;;;;;6.65;3.90;;;19.50;64.50;;;;;;10545396;28;20518;-61
2021/05/30 21:23:33;;;;;;;4.78;3.90;;;19.40;64.40;;;;;;10548473;28;20116;-61
2021/05/30 21:28:35;;;;;;;4.97;3.47;;;19.40;64.40;;;;;;10533833;28;20048;-61
2021/05/30 21:33:36;;;;;;;8.25;3.85;;;19.40;64.40;;;;;;10567821;28;20035;-61
2021/05/30 21:38:37;;;;;;;5.20;3.95;;;19.40;64.40;;;;;;10505553;28;20404;-61
2021/05/30 21:43:37;;;;;;;5.18;3.67;;;19.40;64.40;;;;;;10540797;28;20115;-61
2021/05/30 21:48:38;;;;;;;4.72;3.47;;;19.40;64.40;;;;;;10549411;28;20096;-61
2021/05/30 21:53:39;;;;;;;4.55;3.50;;;19.40;64.50;;;;;;10529917;28;20039;-61
2021/05/30 21:58:40;;;;;;;4.90;3.95;;;19.40;64.50;;;;;;10539993;28;20028;-61
2021/05/30 22:03:41;;;;;;;5.07;4.07;;;19.40;64.50;;;;;;10539868;28;20131;-61
2021/05/30 22:08:42;;;;;;;4.90;3.80;;;19.40;64.50;;;;;;10543856;28;20448;-61
2021/05/30 22:13:43;;;;;;;4.85;3.03;;;19.40;64.40;;;;;;10558678;28;20144;-61
2021/05/30 22:24:05;;;;;;;5.10;3.53;;;19.40;64.40;;;;;;10539597;28;20036;-61
2021/05/30 22:29:06;;;;;;;4.85;4.28;;;19.30;64.30;;;;;;10554489;28;20054;-61
2021/05/30 22:34:07;;;;;;;6.40;3.88;;;19.40;64.30;;;;;;10566191;28;20472;-61
2021/05/30 22:39:10;;;;;;;6.45;4.25;;;19.30;64.10;;;;;;10520469;28;20127;-61
2021/05/30 22:44:11;;;;;;;5.38;4.03;;;19.30;64.20;;;;;;10521203;28;20046;-61
2021/05/30 22:49:11;;;;;;;5.20;3.83;;;19.30;64.20;;;;;;10542492;28;20026;-60
2021/05/30 22:54:13;;;;;;;5.40;3.85;;;19.30;64.20;;;;;;10548311;28;20115;-61
2021/05/30 22:59:13;;;;;;;5.53;3.67;;;19.30;64.10;;;;;;10520221;28;20027;-61
2021/05/30 23:04:14;;;;;;;5.43;3.90;;;19.30;64.10;;;;;;10520281;28;20533;-61
2021/05/30 23:09:15;;;;;;;5.40;4.18;;;19.30;64.00;;;;;;10541744;28;20027;-61
2021/05/30 23:14:15;;;;;;;6.00;4.30;;;19.30;63.80;;;;;;10560458;28;20106;-61
2021/05/30 23:19:16;;;;;;;4.95;4.05;;;19.30;63.80;;;;;;10538092;28;20203;-61
2021/05/30 23:24:17;;;;;;;4.82;4.07;;;19.20;63.80;;;;;;10555025;28;20476;-61
2021/05/30 23:29:17;;;;;;;5.32;4.07;;;19.30;63.80;;;;;;10551754;28;20102;-61
2021/05/30 23:34:19;;;;;;;5.20;3.90;;;19.20;63.80;;;;;;10538294;28;20067;-61
2021/05/30 23:39:20;;;;;;;4.65;3.63;;;19.30;63.80;;;;;;10519668;28;20044;-61
2021/05/30 23:44:20;;;;;;;4.68;4.18;;;19.20;63.80;;;;;;10543093;28;20119;-61
2021/05/30 23:49:21;;;;;;;5.47;4.55;;;19.20;63.80;;;;;;10563275;28;20035;-61
2021/05/30 23:54:22;;;;;;;4.68;3.78;;;19.20;63.80;;;;;;10531206;28;20028;-61
2021/05/30 23:59:23;;;;;;;5.72;4.15;;;19.20;63.80;;;;;;10544528;28;20032;-61
